Yakima Air Terminal McAllister Field
KYKM : now visible

Airfield :











YOU CAN JOIN US ON...

 
LOGIN :

Register | Disclaimer

   EN    FR    IT 

 









Legend :    VFR   Marginal VFR   IFR   Intensive IFR   Very Intensive IFR
Visi :
Ceiling :
>= 8 km
>= 3000ft
5 to 8 km
1000 to 3000 ft
1500m to 5 km
500 to 1000 ft
800 to 1500m
200 to 500 ft
< 800m
< 200 ft
Symbols :   Thunderstorms  Fog  Heavy snow  Heavy precipitations  Wind > 20 kt






- Airport Elevation : 1099 ft
- IATA code : YKM


KYKM - Yakima Air Terminal McAllister Field

CURRENT METAR :
  • 150653Z AUTO 00000KT 1/4SM R27/1600V2000FT FZFG VV002 M02/M02 A3000 RMK AO2 SLP172 I1000 T10171022

EXPIRED METARs :
  • 150608Z AUTO 36003KT 1/4SM R27/1400V1800FT FZFG VV002 M02/M03 A3000 RMK AO2 T10171028
  • 150553Z 00000KT 1/4SM R27/1400V1600FT FZFG VV001 M02/M03 A3000 RMK AO2 TWR VIS 1/4 SLP171 I1000 I6000 T10171028 10006 21017 51006
  • 150549Z 00000KT 1/4SM R27/1400V1600FT FZFG VV002 M02/M03 A3000 RMK AO2 TWR VIS 1/4 I1000
  • 150536Z 00000KT 1/4SM R27/1400V1600FT FZFG VV001 M01/M02 A2999 RMK AO2 TWR VIS 1/4 T10111022
  • 150453Z 00000KT 1/4SM R27/1400V2200FT FZFG VV002 M01/M02 A2999 RMK AO2 TWR VIS 1/4 SLP167 I1000 T10111022

TAF KYKM
Valid from the 15 at 06:00 until the 16 at 06:00 UTC


150534Z 1506/1606 VRB06KT 1/4SM FG OVC002
TEMPO 1506/1510 1SM BR OVC002
FM151500 28008KT P6SM SCT040
FM160200 25008KT P6SM SCT050



MET'MAP, your aeronautical weather chart ! - Copyright ORBIFLY December 2007 - Disclaimer

ORBIFLY MET'MAP TEAM :

Programming & Development : Alexandra Zaïnal
Concept & original design : Baudouin d'Aumeries
Assistance for programming : Marc-Olivier Méhu
Technical & hardware support : Manuel Goepfert

Contact : metmap@orbifly.com




SOURCES & CREDITS :

   NOAA       Earth
Advisory